createdAt,value
2019-04-04T00:02:19.085Z,167.07
2019-04-04T00:04:47.289Z,171.60
2019-04-04T00:07:14.647Z,166.33
2019-04-04T00:09:42.213Z,176.90
2019-04-04T00:12:09.591Z,156.07
2019-04-04T00:14:46.403Z,177.40
2019-04-04T00:17:22.919Z,163.10
2019-04-04T00:20:04.553Z,177.27
2019-04-04T00:22:43.163Z,178.87
2019-04-04T00:25:22.808Z,179.37
2019-04-04T00:28:08.395Z,184.20
2019-04-04T00:30:36.751Z,166.13
2019-04-04T00:33:13.021Z,178.00
2019-04-04T00:35:41.122Z,177.53
2019-04-04T00:38:12.603Z,174.40
2019-04-04T00:40:41.955Z,160.33
2019-04-04T00:43:13.898Z,176.03
2019-04-04T00:45:49.860Z,174.33
2019-04-04T00:48:44.798Z,164.77
2019-04-04T00:51:18.924Z,161.53
2019-04-04T00:53:46.940Z,168.73
2019-04-04T00:56:26.826Z,176.70
2019-04-04T00:58:56.124Z,168.50
2019-04-04T01:01:26.877Z,161.33
2019-04-04T01:04:04.857Z,164.27
2019-04-04T01:06:41.272Z,158.67
2019-04-04T01:09:28.968Z,180.90
2019-04-04T01:11:57.065Z,171.27
2019-04-04T01:14:48.392Z,179.63
2019-04-04T01:17:18.050Z,165.90
2019-04-04T01:19:48.710Z,176.40
2019-04-04T01:22:18.131Z,161.33
2019-04-04T01:24:46.159Z,178.53
2019-04-04T01:27:14.330Z,170.07
2019-04-04T01:29:53.052Z,195.50
2019-04-04T01:32:22.654Z,190.73
2019-04-04T01:34:52.134Z,205.70
2019-04-04T01:37:26.907Z,179.67
2019-04-04T01:40:37.124Z,194.27
2019-04-04T01:43:05.130Z,176.33
2019-04-04T01:45:44.164Z,183.20
2019-04-04T01:48:27.572Z,181.03
2019-04-04T01:50:55.683Z,184.67
2019-04-04T01:53:23.729Z,176.73
2019-04-04T01:55:51.785Z,194.37
2019-04-04T01:58:19.767Z,181.77
2019-04-04T02:00:48.696Z,180.67
2019-04-04T02:03:22.745Z,178.00
2019-04-04T02:05:51.137Z,179.57
2019-04-04T02:08:19.803Z,179.33
2019-04-04T02:10:47.488Z,186.53
2019-04-04T02:13:16.832Z,179.53
2019-04-04T02:15:45.620Z,177.33
2019-04-04T02:18:35.766Z,181.57
2019-04-04T02:21:04.944Z,175.43
2019-04-04T02:23:36.523Z,186.57
2019-04-04T02:26:05.142Z,182.63
2019-04-04T02:28:33.254Z,177.77
2019-04-04T02:31:01.049Z,184.13
2019-04-04T02:33:31.959Z,173.80
2019-04-04T02:35:57.789Z,169.83
2019-04-04T02:38:28.110Z,195.80
2019-04-04T02:40:55.021Z,167.97
2019-04-04T02:43:27.424Z,173.23
2019-04-04T02:45:53.273Z,173.77
2019-04-04T02:48:23.368Z,170.10
2019-04-04T02:50:50.354Z,174.60
2019-04-04T02:53:20.427Z,170.90
2019-04-04T02:55:47.533Z,174.50
2019-04-04T02:58:15.503Z,180.57
2019-04-04T03:00:43.073Z,169.13
2019-04-04T03:03:10.636Z,172.53
2019-04-04T03:05:38.233Z,168.27
2019-04-04T03:08:06.073Z,168.83
2019-04-04T03:10:33.697Z,167.07
2019-04-04T03:13:03.373Z,166.93
2019-04-04T03:15:31.111Z,187.80
2019-04-04T03:17:58.790Z,166.70
2019-04-04T03:20:27.452Z,164.10
2019-04-04T03:23:00.284Z,175.83
2019-04-04T03:25:27.127Z,168.77
2019-04-04T03:27:55.534Z,161.53
2019-04-04T03:30:24.496Z,163.03
2019-04-04T03:32:54.731Z,161.70
2019-04-04T03:35:26.551Z,156.97
2019-04-04T03:37:51.159Z,169.03
2019-04-04T03:40:19.347Z,178.60
2019-04-04T03:42:46.973Z,165.30
2019-04-04T03:45:14.385Z,165.03
2019-04-04T03:47:44.493Z,156.57
2019-04-04T03:50:11.261Z,168.67
2019-04-04T03:52:43.382Z,184.53
2019-04-04T03:55:09.785Z,165.47
2019-04-04T03:57:37.422Z,173.23
2019-04-04T04:00:07.080Z,169.73
2019-04-04T04:02:35.817Z,167.60
2019-04-04T04:05:17.411Z,163.87
2019-04-04T04:07:45.823Z,163.97
2019-04-04T04:10:14.024Z,178.93
2019-04-04T04:12:43.043Z,171.33
2019-04-04T04:15:10.775Z,170.40
2019-04-04T04:17:38.197Z,169.53
2019-04-04T04:20:06.755Z,167.47
2019-04-04T04:22:34.110Z,176.00
2019-04-04T04:25:03.267Z,176.77
2019-04-04T04:27:30.889Z,162.90
2019-04-04T04:29:59.766Z,180.13
2019-04-04T04:32:28.769Z,175.03
2019-04-04T04:34:56.779Z,195.37
2019-04-04T04:37:24.275Z,170.60
2019-04-04T04:39:51.708Z,192.40
2019-04-04T04:42:21.121Z,181.93
2019-04-04T04:44:48.629Z,187.87
2019-04-04T04:47:16.215Z,171.13
2019-04-04T04:49:43.801Z,186.43
2019-04-04T04:52:14.211Z,177.03
2019-04-04T04:54:40.908Z,198.33
2019-04-04T04:57:08.551Z,175.23
2019-04-04T04:59:36.197Z,199.27
2019-04-04T05:02:03.894Z,172.77
2019-04-04T05:04:31.384Z,190.07
2019-04-04T05:06:59.527Z,194.20
2019-04-04T05:09:27.178Z,204.27
2019-04-04T05:11:54.843Z,175.87
2019-04-04T05:14:22.378Z,183.03
2019-04-04T05:16:50.075Z,174.87
2019-04-04T05:19:18.978Z,180.33
2019-04-04T05:21:49.239Z,163.70
2019-04-04T05:24:18.014Z,179.63
2019-04-04T05:26:46.291Z,167.87
2019-04-04T05:29:14.143Z,178.90
2019-04-04T05:31:41.950Z,171.43
2019-04-04T05:34:09.793Z,186.67
2019-04-04T05:36:37.426Z,171.10
2019-04-04T05:39:07.919Z,184.07
2019-04-04T05:41:37.296Z,159.00
2019-04-04T05:44:04.860Z,189.80
2019-04-04T05:46:33.366Z,171.57
2019-04-04T05:49:07.573Z,176.60
2019-04-04T05:51:30.255Z,167.90
2019-04-04T05:53:57.926Z,175.87
2019-04-04T05:56:25.354Z,163.37
2019-04-04T05:58:53.664Z,165.53
2019-04-04T06:01:21.978Z,171.30
2019-04-04T06:03:49.528Z,164.57
2019-04-04T06:06:16.868Z,179.97
2019-04-04T06:08:44.284Z,170.73
2019-04-04T06:11:12.396Z,168.97
2019-04-04T06:13:40.257Z,164.67
2019-04-04T06:16:07.717Z,167.70
2019-04-04T06:18:35.145Z,162.10
2019-04-04T06:21:02.809Z,181.57
2019-04-04T06:23:30.148Z,157.83
2019-04-04T06:25:57.473Z,173.87
2019-04-04T06:28:24.876Z,166.50
2019-04-04T06:30:54.170Z,157.73
2019-04-04T06:33:21.762Z,157.97
2019-04-04T06:35:49.187Z,162.37
2019-04-04T06:38:16.670Z,159.03
2019-04-04T06:40:44.029Z,154.37
2019-04-04T06:43:12.038Z,152.27
2019-04-04T06:45:39.593Z,154.17
2019-04-04T06:48:07.978Z,163.27
2019-04-04T06:50:38.897Z,164.60
2019-04-04T06:53:04.756Z,180.53
2019-04-04T06:55:32.201Z,165.77
2019-04-04T06:57:59.605Z,159.73
2019-04-04T07:00:27.138Z,171.07
2019-04-04T07:02:56.077Z,162.77
2019-04-04T07:05:23.588Z,171.23
2019-04-04T07:07:51.075Z,164.00
2019-04-04T07:10:21.037Z,159.03
2019-04-04T07:12:48.996Z,165.17
2019-04-04T07:15:18.065Z,161.13
2019-04-04T07:17:45.708Z,155.77
2019-04-04T07:20:16.694Z,163.00
2019-04-04T07:22:44.143Z,177.97
2019-04-04T07:25:11.697Z,166.60
2019-04-04T07:27:39.118Z,161.50
2019-04-04T07:30:08.126Z,181.07
2019-04-04T07:32:35.662Z,164.07
2019-04-04T07:35:03.736Z,157.47
2019-04-04T07:37:31.047Z,167.90
2019-04-04T07:39:58.356Z,172.07
2019-04-04T07:42:25.694Z,171.73
2019-04-04T07:44:54.746Z,185.60
2019-04-04T07:47:22.613Z,176.67
2019-04-04T07:49:53.158Z,177.63
2019-04-04T07:52:20.793Z,164.27
2019-04-04T07:54:48.130Z,174.97
2019-04-04T07:57:17.346Z,167.07
2019-04-04T07:59:44.953Z,183.83
2019-04-04T08:02:12.412Z,183.60
2019-04-04T08:04:39.974Z,190.90
2019-04-04T08:07:07.327Z,192.33
2019-04-04T08:09:34.972Z,196.67
2019-04-04T08:12:02.577Z,167.00
2019-04-04T08:14:30.017Z,184.47
2019-04-04T08:16:57.373Z,156.63
2019-04-04T08:19:24.795Z,185.97
2019-04-04T08:21:52.118Z,170.30
2019-04-04T08:24:19.445Z,173.03
2019-04-04T08:26:47.102Z,161.13
2019-04-04T08:29:14.477Z,178.80
2019-04-04T08:31:41.841Z,185.37
2019-04-04T08:34:09.218Z,180.00
2019-04-04T08:36:36.700Z,171.80
2019-04-04T08:39:07.845Z,203.80
2019-04-04T08:41:35.212Z,166.43
2019-04-04T08:44:03.073Z,175.73
2019-04-04T08:46:30.732Z,159.33
2019-04-04T08:48:58.182Z,175.00
2019-04-04T08:51:25.497Z,179.90
2019-04-04T08:53:53.021Z,176.47
2019-04-04T08:56:20.365Z,163.07
2019-04-04T08:58:47.704Z,176.53
2019-04-04T09:01:15.169Z,165.63
2019-04-04T09:03:42.723Z,164.27
2019-04-04T09:06:10.067Z,168.50
2019-04-04T09:08:37.493Z,169.90
2019-04-04T09:11:05.107Z,174.03
2019-04-04T09:13:32.750Z,184.47
2019-04-04T09:16:00.175Z,178.83
2019-04-04T09:18:27.596Z,163.27
2019-04-04T09:20:54.959Z,162.67
2019-04-04T09:23:22.380Z,169.83
2019-04-04T09:25:50.702Z,171.87
2019-04-04T09:28:18.042Z,176.27
2019-04-04T09:30:45.636Z,164.90
2019-04-04T09:33:13.055Z,175.47
2019-04-04T09:35:40.549Z,170.63
2019-04-04T09:38:07.924Z,165.63
2019-04-04T09:40:35.269Z,175.90
2019-04-04T09:43:02.677Z,171.70
2019-04-04T09:46:23.577Z,167.03
2019-04-04T09:48:50.924Z,167.27
2019-04-04T09:51:18.216Z,170.03
2019-04-04T09:53:52.871Z,172.60
2019-04-04T09:56:15.050Z,167.33
2019-04-04T09:58:42.525Z,178.43
2019-04-04T10:01:09.932Z,178.53
2019-04-04T10:03:37.609Z,171.90
2019-04-04T10:06:05.119Z,165.77
2019-04-04T10:08:32.741Z,175.87
2019-04-04T10:11:00.135Z,176.60
2019-04-04T10:13:27.575Z,170.27
2019-04-04T10:15:55.077Z,171.10
2019-04-04T10:18:22.382Z,176.70
2019-04-04T10:20:49.787Z,170.37
2019-04-04T10:23:17.117Z,168.13
2019-04-04T10:25:44.478Z,178.40
2019-04-04T10:28:11.946Z,186.33
2019-04-04T10:30:40.277Z,174.73
2019-04-04T10:33:07.727Z,168.43
2019-04-04T10:35:35.268Z,193.00
2019-04-04T10:38:02.733Z,166.27
2019-04-04T10:40:30.266Z,166.30
2019-04-04T10:42:57.731Z,168.50
2019-04-04T10:45:25.277Z,173.97
2019-04-04T10:47:52.632Z,168.30
2019-04-04T10:50:20.059Z,171.77
2019-04-04T10:52:47.611Z,174.37
2019-04-04T10:55:15.070Z,169.40
2019-04-04T10:57:42.475Z,173.13
2019-04-04T11:00:11.650Z,171.72
2019-04-04T11:02:39.046Z,173.37
2019-04-04T11:05:06.693Z,179.73
2019-04-04T11:07:34.490Z,175.60
2019-04-04T11:10:01.854Z,167.17
2019-04-04T11:12:29.704Z,157.93
2019-04-04T11:14:57.048Z,171.40
2019-04-04T11:17:24.472Z,166.10
2019-04-04T11:19:51.904Z,181.60
2019-04-04T11:22:19.278Z,177.17
2019-04-04T11:24:46.680Z,173.43
2019-04-04T11:27:14.014Z,168.23
2019-04-04T11:29:41.373Z,173.43
2019-04-04T11:32:08.827Z,170.67
2019-04-04T11:34:36.282Z,184.90
2019-04-04T11:37:03.850Z,175.40
2019-04-04T11:39:31.224Z,176.40
2019-04-04T11:41:58.914Z,167.07
2019-04-04T11:44:26.341Z,191.87
2019-04-04T11:46:53.826Z,172.03
2019-04-04T11:49:21.363Z,184.87
2019-04-04T11:51:51.797Z,163.90
2019-04-04T11:54:19.332Z,180.63
2019-04-04T11:56:46.737Z,166.67
2019-04-04T11:59:14.359Z,180.30
2019-04-04T12:01:42.473Z,167.33
2019-04-04T12:04:09.926Z,187.27
2019-04-04T12:06:37.319Z,167.37
2019-04-04T12:09:07.303Z,179.07
2019-04-04T12:11:35.054Z,171.73
2019-04-04T12:14:03.338Z,172.53
2019-04-04T12:16:32.707Z,168.70
2019-04-04T12:19:00.347Z,168.43
2019-04-04T12:21:28.280Z,187.10
2019-04-04T12:23:56.961Z,178.53
2019-04-04T12:26:24.447Z,177.60
2019-04-04T12:28:52.087Z,178.33
2019-04-04T12:31:20.063Z,177.90
2019-04-04T12:33:48.427Z,179.37
2019-04-04T12:36:24.541Z,177.97
2019-04-04T12:38:46.345Z,174.40
2019-04-04T12:41:13.847Z,177.40
2019-04-04T12:43:41.322Z,186.10
2019-04-04T12:46:09.190Z,184.90
2019-04-04T12:48:36.534Z,188.87
2019-04-04T12:51:04.525Z,183.53
2019-04-04T12:53:32.888Z,190.53
2019-04-04T12:56:01.823Z,179.20
2019-04-04T12:58:29.190Z,179.40
2019-04-04T13:00:56.650Z,167.43
2019-04-04T13:03:24.219Z,156.57
2019-04-04T13:05:52.772Z,169.23
2019-04-04T13:08:20.757Z,165.97
2019-04-04T13:10:48.216Z,156.93
2019-04-04T13:13:16.362Z,159.30
2019-04-04T13:15:43.784Z,165.30
2019-04-04T13:18:11.266Z,161.50
2019-04-04T13:20:38.609Z,165.03
2019-04-04T13:23:06.023Z,164.07
2019-04-04T13:25:33.488Z,151.50
2019-04-04T13:28:00.805Z,155.43
2019-04-04T13:30:28.158Z,177.27
2019-04-04T13:32:56.268Z,154.03
2019-04-04T13:35:23.627Z,160.50
2019-04-04T13:37:52.785Z,172.50
2019-04-04T13:40:20.395Z,167.67
2019-04-04T13:42:48.009Z,165.40
2019-04-04T13:45:16.016Z,169.90
2019-04-04T13:47:44.634Z,166.30
2019-04-04T13:50:12.940Z,167.30
2019-04-04T13:52:41.013Z,164.40
2019-04-04T13:55:08.705Z,163.53
2019-04-04T13:57:39.106Z,157.60
2019-04-04T14:00:09.167Z,165.53
2019-04-04T14:02:36.926Z,163.73
2019-04-04T14:05:10.183Z,163.57
2019-04-04T14:07:37.282Z,167.03
2019-04-04T14:10:05.843Z,163.13
2019-04-04T14:12:36.367Z,156.73
2019-04-04T14:15:05.414Z,162.47
2019-04-04T14:17:33.223Z,161.13
2019-04-04T14:20:00.735Z,164.93
2019-04-04T14:22:28.091Z,165.70
2019-04-04T14:24:55.618Z,172.20
2019-04-04T14:27:23.229Z,156.87
2019-04-04T14:29:55.171Z,173.03
2019-04-04T14:32:22.230Z,158.27
2019-04-04T14:34:49.801Z,178.10
2019-04-04T14:37:17.303Z,161.50
2019-04-04T14:39:46.691Z,171.20
2019-04-04T14:42:14.057Z,164.97
2019-04-04T14:44:41.720Z,172.70
2019-04-04T14:47:09.291Z,167.57
2019-04-04T14:49:37.261Z,168.63
2019-04-04T14:52:04.820Z,157.73
2019-04-04T14:54:32.709Z,191.60
2019-04-04T14:57:00.264Z,156.63
2019-04-04T14:59:28.308Z,169.87
2019-04-04T15:01:56.205Z,146.07
2019-04-04T15:04:26.355Z,167.83
2019-04-04T15:06:54.293Z,154.03
2019-04-04T15:09:21.851Z,165.77
2019-04-04T15:11:50.162Z,157.57
2019-04-04T15:14:18.921Z,163.27
2019-04-04T15:16:46.709Z,166.67
2019-04-04T15:19:17.442Z,160.67
2019-04-04T15:21:50.582Z,163.17
2019-04-04T15:24:18.250Z,167.80
2019-04-04T15:26:47.995Z,163.53
2019-04-04T15:29:16.561Z,165.33
2019-04-04T15:31:44.246Z,156.30
2019-04-04T15:34:11.745Z,166.87
2019-04-04T15:36:39.074Z,157.53
2019-04-04T15:39:06.834Z,172.90
2019-04-04T15:41:37.093Z,159.43
2019-04-04T15:44:03.824Z,163.33
2019-04-04T15:46:32.128Z,162.67
2019-04-04T15:48:59.597Z,153.93
2019-04-04T15:51:28.039Z,155.70
2019-04-04T15:53:55.609Z,155.03
2019-04-04T15:56:23.494Z,158.73
2019-04-04T15:58:51.020Z,168.27
2019-04-04T16:01:18.373Z,155.83
2019-04-04T16:03:45.847Z,157.20
2019-04-04T16:06:15.270Z,148.73
2019-04-04T16:08:43.500Z,158.37
2019-04-04T16:11:10.966Z,162.60
2019-04-04T16:13:38.334Z,163.07
2019-04-04T16:16:06.659Z,171.60
2019-04-04T16:18:34.287Z,151.63
2019-04-04T16:21:02.305Z,167.97
2019-04-04T16:23:30.695Z,156.47
2019-04-04T16:25:58.263Z,157.73
2019-04-04T16:28:25.697Z,164.23
2019-04-04T16:30:55.053Z,190.20
2019-04-04T16:33:22.479Z,177.93
2019-04-04T16:35:50.024Z,180.83
2019-04-04T16:38:18.034Z,160.37
2019-04-04T16:40:45.751Z,157.30
2019-04-04T16:43:13.294Z,157.43
2019-04-04T16:45:44.003Z,155.13
2019-04-04T16:48:13.846Z,153.03
2019-04-04T16:50:41.958Z,154.83
2019-04-04T16:53:09.411Z,162.20
2019-04-04T16:55:38.709Z,172.13
2019-04-04T16:58:06.191Z,166.87
2019-04-04T17:00:35.090Z,162.80
2019-04-04T17:03:02.814Z,160.33
2019-04-04T17:05:30.514Z,157.03
2019-04-04T17:07:58.009Z,179.47
2019-04-04T17:10:28.099Z,162.93
2019-04-04T17:12:56.408Z,158.83
2019-04-04T17:15:24.101Z,161.07
2019-04-04T17:17:51.605Z,167.77
2019-04-04T17:20:20.854Z,163.80
2019-04-04T17:22:53.279Z,162.50
2019-04-04T17:25:22.188Z,170.90
2019-04-04T17:27:51.851Z,170.90
2019-04-04T17:30:20.862Z,173.67
2019-04-04T17:32:49.647Z,174.33
2019-04-04T17:35:17.938Z,176.90
2019-04-04T17:37:46.111Z,160.07
2019-04-04T17:40:14.115Z,167.77
2019-04-04T17:42:44.032Z,158.67
2019-04-04T17:45:13.129Z,179.80
2019-04-04T17:47:40.809Z,162.37
2019-04-04T17:50:10.151Z,175.57
2019-04-04T17:52:37.871Z,159.17
2019-04-04T17:55:05.997Z,158.90
2019-04-04T17:57:33.797Z,162.57
2019-04-04T18:00:01.485Z,162.03
2019-04-04T18:02:29.081Z,146.30
2019-04-04T18:04:56.511Z,156.27
2019-04-04T18:07:23.979Z,149.63
2019-04-04T18:09:51.680Z,154.97
2019-04-04T18:12:19.298Z,148.30
2019-04-04T18:14:46.676Z,153.73
2019-04-04T18:17:15.485Z,152.67
2019-04-04T18:19:43.045Z,157.70
2019-04-04T18:22:10.579Z,152.70
2019-04-04T18:24:38.135Z,170.33
2019-04-04T18:27:06.047Z,147.07
2019-04-04T18:29:33.972Z,164.07
2019-04-04T18:32:02.424Z,146.30
2019-04-04T18:34:31.727Z,168.67
2019-04-04T18:37:00.146Z,166.30
2019-04-04T18:39:27.505Z,174.17
2019-04-04T18:41:56.052Z,162.77
2019-04-04T18:44:24.936Z,165.17
2019-04-04T18:46:53.278Z,167.57
2019-04-04T18:49:23.484Z,180.80
2019-04-04T18:51:51.084Z,160.30
2019-04-04T18:54:18.678Z,106.17
2019-04-04T18:56:49.808Z,108.30
2019-04-04T18:59:19.648Z,107.90
2019-04-04T19:01:52.295Z,107.10
2019-04-04T19:04:20.812Z,105.57
2019-04-04T19:06:49.190Z,106.77
2019-04-04T19:09:16.676Z,101.60
2019-04-04T19:11:45.756Z,106.07
2019-04-04T19:14:13.341Z,110.77
2019-04-04T19:16:41.068Z,103.67
2019-04-04T19:19:08.858Z,104.90
2019-04-04T19:21:36.638Z,104.90
2019-04-04T19:24:05.151Z,182.73
2019-04-04T19:26:34.970Z,186.70
2019-04-04T19:29:03.790Z,183.37
2019-04-04T19:31:32.898Z,168.47
2019-04-04T19:34:00.273Z,168.00
2019-04-04T19:36:30.489Z,166.17
2019-04-04T19:38:59.483Z,173.90
2019-04-04T19:41:28.143Z,174.50
2019-04-04T19:43:55.664Z,169.00
2019-04-04T19:46:36.441Z,180.53
2019-04-04T19:48:55.315Z,174.90
2019-04-04T19:51:22.708Z,169.97
2019-04-04T19:53:50.640Z,176.43
2019-04-04T19:56:17.946Z,175.37
2019-04-04T19:58:46.272Z,174.50
2019-04-04T20:01:15.010Z,171.23
2019-04-04T20:03:42.552Z,169.53
2019-04-04T20:06:11.120Z,172.13
2019-04-04T20:08:38.750Z,181.07
2019-04-04T20:11:07.023Z,158.37
2019-04-04T20:13:47.914Z,168.53
2019-04-04T20:16:16.957Z,170.50
2019-04-04T20:18:45.437Z,184.43
2019-04-04T20:21:13.773Z,164.57
2019-04-04T20:23:45.400Z,176.47
2019-04-04T20:26:13.150Z,161.07
2019-04-04T20:28:40.612Z,167.83
2019-04-04T20:31:08.232Z,160.20
2019-04-04T20:33:35.891Z,164.50
2019-04-04T20:36:05.016Z,156.97
2019-04-04T20:38:33.726Z,156.87
2019-04-04T20:41:01.510Z,152.33
2019-04-04T20:43:29.194Z,153.47
2019-04-04T20:45:58.053Z,146.17
2019-04-04T20:48:27.239Z,154.23
2019-04-04T20:50:54.897Z,159.50
2019-04-04T20:53:22.453Z,153.93
2019-04-04T20:55:50.034Z,180.37
2019-04-04T20:58:17.632Z,154.30
2019-04-04T21:00:46.352Z,161.13
2019-04-04T21:03:13.981Z,149.53
2019-04-04T21:05:41.461Z,153.00
2019-04-04T21:08:11.973Z,151.97
2019-04-04T21:10:42.363Z,147.03
2019-04-04T21:13:10.054Z,151.80
2019-04-04T21:15:40.159Z,146.43
2019-04-04T21:18:07.783Z,151.93
2019-04-04T21:20:35.239Z,155.43
2019-04-04T21:23:02.811Z,151.00
2019-04-04T21:25:30.301Z,152.60
2019-04-04T21:27:57.961Z,153.77
2019-04-04T21:30:25.665Z,146.97
2019-04-04T21:32:53.080Z,166.27
2019-04-04T21:35:21.673Z,151.07
2019-04-04T21:37:49.298Z,154.13
2019-04-04T21:40:16.746Z,151.67
2019-04-04T21:42:45.478Z,157.73
2019-04-04T21:45:15.297Z,156.60
2019-04-04T21:47:42.461Z,150.80
2019-04-04T21:50:09.954Z,165.90
2019-04-04T21:52:37.374Z,158.70
2019-04-04T21:55:05.832Z,160.00
2019-04-04T21:57:33.178Z,159.77
2019-04-04T22:00:00.627Z,155.93
2019-04-04T22:02:28.082Z,159.90
2019-04-04T22:04:57.362Z,156.83
2019-04-04T22:07:25.664Z,159.47
2019-04-04T22:09:53.235Z,174.47
2019-04-04T22:12:20.825Z,162.07
2019-04-04T22:14:48.313Z,165.33
2019-04-04T22:17:16.706Z,156.90
2019-04-04T22:19:44.692Z,172.23
2019-04-04T22:22:13.548Z,154.27
2019-04-04T22:24:41.896Z,171.10
2019-04-04T22:27:10.039Z,148.63
2019-04-04T22:29:37.377Z,169.20
2019-04-04T22:32:04.757Z,152.63
2019-04-04T22:34:33.145Z,173.03
2019-04-04T22:37:00.539Z,148.47
2019-04-04T22:39:28.274Z,163.57
2019-04-04T22:41:55.631Z,180.00
2019-04-04T22:44:34.017Z,170.47
2019-04-04T22:46:53.898Z,169.40
2019-04-04T22:49:21.877Z,172.43
2019-04-04T22:51:49.380Z,157.07
2019-04-04T22:54:17.043Z,171.93
2019-04-04T22:56:44.388Z,149.93
2019-04-04T22:59:11.792Z,168.27
2019-04-04T23:01:39.331Z,161.00
2019-04-04T23:04:06.981Z,165.27
2019-04-04T23:06:36.333Z,157.30
2019-04-04T23:09:08.059Z,176.57
2019-04-04T23:11:35.549Z,158.63
2019-04-04T23:14:04.090Z,173.87
2019-04-04T23:16:31.695Z,156.57
2019-04-04T23:18:59.229Z,176.00
2019-04-04T23:21:26.733Z,155.07
2019-04-04T23:23:54.539Z,161.93
2019-04-04T23:26:22.060Z,160.73
2019-04-04T23:28:49.434Z,154.87
2019-04-04T23:31:16.913Z,158.40
2019-04-04T23:33:44.580Z,159.30
2019-04-04T23:36:12.133Z,158.77
2019-04-04T23:38:41.499Z,153.63
2019-04-04T23:41:09.126Z,159.77
2019-04-04T23:43:36.513Z,163.77
2019-04-04T23:46:04.060Z,156.03
2019-04-04T23:48:31.672Z,163.27
2019-04-04T23:50:59.099Z,160.93
2019-04-04T23:53:26.757Z,164.33
2019-04-04T23:55:54.377Z,175.33
2019-04-04T23:58:21.834Z,162.87
